Menlo, Georgia
Current Conditions -  °F | °C
As of 1:15 AM on Monday 26 Jan 2015 (Local Time) from K4A9 Reporting Station
Overcast Overcast  
Wind Chill: 43°   Ceiling: 2200
Heat Index: 43°   Visibility: 10mi
Dew Point: 36°   Wind: 3mph
Humidity: 76%   Direction: 260°W
Pressure: 29.74"   Gusts: NA
Location:  34.48°N, 85.48°W
Report Text: K4A9 260615Z AUTO 26003KT 10SM BKN022 BKN027 OVC034 06/02 A2974 RMK AO2
Loading
Personal Weather Stations






























Interactive Weather Map New forecast layout! Learn more

10-Day Weather Forecast

Advertisements
Track Severe Weather on mobile